Time;durP1;ratioP1;P1;durP2;ratioP2;P2;SDS_P1;SDS_P2;PMS_P1;PMS_P2;Temp;Humidity;BMP_temperature;BMP_pressure;BME280_temperature;BME280_humidity;BME280_pressure;Samples;Min_cycle;Max_cycle;Signal;HPM_P1;HPM_P2
2023/11/03 00:00:48;;;;;;;2.67;0.93;;;;;;;10.82;100.00;98091.38;6096543;28;20236;-76
2023/11/03 00:04:09;;;;;;;1.90;1.80;;;;;;;10.77;100.00;98089.28;6112318;28;20239;-75
2023/11/03 00:07:30;;;;;;;1.40;1.03;;;;;;;10.76;100.00;98084.09;6112486;28;20236;-75
2023/11/03 00:10:51;;;;;;;2.30;1.63;;;;;;;10.86;100.00;98092.59;6107239;29;20318;-75
2023/11/03 00:14:13;;;;;;;4.60;1.67;;;;;;;10.79;100.00;98073.75;6097033;29;20786;-75
2023/11/03 00:17:36;;;;;;;2.10;0.90;;;;;;;10.81;100.00;98084.31;6108852;29;20547;-76
2023/11/03 00:20:57;;;;;;;10.97;1.83;;;;;;;10.76;100.00;98084.09;6110577;28;20602;-76
2023/11/03 00:24:19;;;;;;;2.73;1.53;;;;;;;10.80;100.00;98077.28;6111172;29;20239;-75
2023/11/03 00:27:40;;;;;;;8.43;1.70;;;;;;;10.82;100.00;98075.19;6113479;28;20232;-76
2023/11/03 00:31:03;;;;;;;2.63;1.57;;;;;;;10.72;100.00;98070.19;6089144;28;20228;-75
2023/11/03 00:34:24;;;;;;;1.13;1.03;;;;;;;10.70;100.00;98071.47;6079759;29;20615;-74
2023/11/03 00:37:45;;;;;;;1.43;0.90;;;;;;;10.70;100.00;98082.25;6109849;28;20228;-74
2023/11/03 00:41:06;;;;;;;1.57;1.37;;;;;;;10.69;100.00;98070.63;6109148;28;20244;-75
2023/11/03 00:44:28;;;;;;;4.97;1.97;;;;;;;10.67;100.00;98070.00;6106008;28;20232;-75
2023/11/03 00:47:50;;;;;;;2.47;1.30;;;;;;;10.63;100.00;98068.75;6110226;28;20513;-75
2023/11/03 00:51:11;;;;;;;2.47;1.47;;;;;;;10.61;100.00;98076.22;6108561;29;20304;-74
2023/11/03 00:54:32;;;;;;;3.90;2.30;;;;;;;10.60;100.00;98066.47;6112946;28;20231;-75
2023/11/03 00:57:53;;;;;;;3.23;1.80;;;;;;;10.58;100.00;98063.13;6101649;28;20316;-75
2023/11/03 01:01:14;;;;;;;2.27;1.47;;;;;;;10.61;100.00;98065.44;6084373;29;20283;-74
2023/11/03 01:04:37;;;;;;;3.50;1.40;;;;;;;10.56;100.00;98070.59;6107763;28;20236;-75
2023/11/03 01:07:58;;;;;;;7.57;1.60;;;;;;;10.57;100.00;98064.19;6113900;28;20236;-74
2023/11/03 01:11:23;;;;;;;1.40;1.13;;;;;;;10.55;100.00;98062.72;6061260;28;20227;-75
2023/11/03 01:14:44;;;;;;;3.50;1.30;;;;;;;10.57;100.00;98066.03;6122992;28;20232;-74
2023/11/03 01:18:05;;;;;;;1.83;1.50;;;;;;;10.50;100.00;98057.13;6126918;28;20232;-75
2023/11/03 01:21:28;;;;;;;1.33;0.90;;;;;;;10.51;100.00;98069.56;6099395;28;25244;-75
2023/11/03 01:24:52;;;;;;;1.33;1.23;;;;;;;10.42;100.00;98075.16;6109858;28;20232;-74
2023/11/03 01:28:13;;;;;;;1.43;1.30;;;;;;;10.43;100.00;98066.00;6107860;28;20232;-76
2023/11/03 01:31:36;;;;;;;1.27;1.03;;;;;;;10.41;100.00;98072.63;6100513;28;20228;-76
2023/11/03 01:34:57;;;;;;;6.07;1.73;;;;;;;10.33;100.00;98065.59;6109756;28;20743;-76
2023/11/03 01:38:19;;;;;;;2.70;1.23;;;;;;;10.28;100.00;98067.25;6110224;28;20236;-76
2023/11/03 01:41:40;;;;;;;1.53;0.90;;;;;;;10.27;100.00;98066.41;6118766;28;20536;-75
2023/11/03 01:45:01;;;;;;;1.47;1.00;;;;;;;10.28;100.00;98070.75;6109376;28;20227;-76
2023/11/03 01:48:22;;;;;;;3.47;1.53;;;;;;;10.26;100.00;98074.69;6107777;28;20236;-75
2023/11/03 01:51:43;;;;;;;2.60;1.90;;;;;;;10.18;100.00;98075.69;6104403;28;20323;-75
2023/11/03 01:55:07;;;;;;;2.97;1.10;;;;;;;10.18;100.00;98069.50;6113676;28;20601;-76
2023/11/03 01:58:29;;;;;;;3.17;1.50;;;;;;;10.19;100.00;98073.84;6105475;28;20228;-77
2023/11/03 02:01:52;;;;;;;2.60;1.10;;;;;;;10.14;100.00;98078.97;6125751;28;20236;-75
2023/11/03 02:05:13;;;;;;;2.87;0.97;;;;;;;10.11;100.00;98080.25;6110653;28;20236;-75
2023/11/03 02:08:34;;;;;;;2.20;0.97;;;;;;;10.07;100.00;98067.34;6105777;28;20239;-75
2023/11/03 02:11:56;;;;;;;1.70;1.00;;;;;;;10.07;100.00;98057.41;6104407;28;20228;-75
2023/11/03 02:15:17;;;;;;;4.00;1.20;;;;;;;10.01;100.00;98062.78;6110157;28;20255;-75
2023/11/03 02:18:39;;;;;;;0.97;0.87;;;;;;;9.95;100.00;98056.31;6108543;28;20588;-76
2023/11/03 02:21:59;;;;;;;4.87;1.33;;;;;;;9.96;100.00;98057.16;6108071;29;20239;-77
2023/11/03 02:25:22;;;;;;;2.90;1.03;;;;;;;9.90;100.00;98064.19;6110824;28;20261;-75
2023/11/03 02:28:43;;;;;;;1.67;1.27;;;;;;;9.88;100.00;98050.09;6095556;29;20252;-75
2023/11/03 02:32:04;;;;;;;2.37;1.40;;;;;;;9.89;100.00;98053.63;6074054;28;20232;-75
2023/11/03 02:35:25;;;;;;;2.27;1.60;;;;;;;9.85;100.00;98066.63;6077001;29;20285;-74
2023/11/03 02:38:46;;;;;;;1.87;1.13;;;;;;;9.84;100.00;98058.78;6071711;29;20244;-76
2023/11/03 02:42:08;;;;;;;2.73;1.57;;;;;;;9.84;100.00;98054.22;6103851;28;20585;-74
2023/11/03 02:45:29;;;;;;;3.43;1.30;;;;;;;9.88;100.00;98060.88;6113004;28;20259;-75
2023/11/03 02:48:51;;;;;;;3.50;0.93;;;;;;;9.83;100.00;98063.31;6108445;28;20325;-75
2023/11/03 02:52:11;;;;;;;0.80;0.80;;;;;;;9.84;100.00;98080.28;6103489;28;20489;-75
2023/11/03 02:55:33;;;;;;;3.57;2.20;;;;;;;9.78;100.00;98071.16;6098996;28;20255;-77
2023/11/03 02:58:55;;;;;;;1.33;1.23;;;;;;;9.74;100.00;98075.28;6086533;29;20236;-75
2023/11/03 03:02:16;;;;;;;3.40;1.67;;;;;;;9.77;100.00;98060.59;6107996;28;20232;-76
2023/11/03 03:05:37;;;;;;;1.13;1.03;;;;;;;9.78;100.00;98076.56;6108255;28;20243;-76
2023/11/03 03:08:58;;;;;;;2.00;0.73;;;;;;;9.77;100.00;98066.81;6092412;28;20685;-76
2023/11/03 03:12:18;;;;;;;1.23;0.73;;;;;;;9.79;100.00;98070.13;6118809;28;20314;-76
2023/11/03 03:15:41;;;;;;;2.13;1.10;;;;;;;9.84;100.00;98069.53;6110489;28;20240;-75
2023/11/03 03:19:05;;;;;;;2.77;2.00;;;;;;;9.89;100.00;98067.88;6122983;28;20235;-75
2023/11/03 03:22:26;;;;;;;1.87;1.20;;;;;;;9.92;100.00;98053.22;6107165;28;20240;-77
2023/11/03 03:25:47;;;;;;;4.40;1.10;;;;;;;9.94;100.00;98051.97;6109078;28;20235;-76
2023/11/03 03:29:08;;;;;;;2.77;1.30;;;;;;;9.92;100.00;98042.44;6110138;29;20228;-75
2023/11/03 03:32:30;;;;;;;1.90;1.17;;;;;;;9.96;100.00;98041.00;6109996;29;20483;-76
2023/11/03 03:35:51;;;;;;;1.70;1.30;;;;;;;9.94;100.00;98026.94;6086206;28;20625;-75
2023/11/03 03:39:12;;;;;;;1.53;0.93;;;;;;;9.99;100.00;98030.66;6087402;28;20239;-75
2023/11/03 03:42:34;;;;;;;1.53;1.03;;;;;;;10.01;100.00;98027.78;6110366;28;20239;-74
2023/11/03 03:45:55;;;;;;;1.70;0.97;;;;;;;10.00;100.00;98044.94;6112536;28;20244;-76
2023/11/03 03:49:17;;;;;;;1.33;1.20;;;;;;;9.91;100.00;98030.84;6113119;28;20236;-76
2023/11/03 03:52:38;;;;;;;3.67;1.20;;;;;;;9.94;100.00;98026.94;6114561;28;20236;-75
2023/11/03 03:55:59;;;;;;;2.13;1.10;;;;;;;9.92;100.00;98018.22;6112096;29;20228;-76
2023/11/03 03:59:21;;;;;;;1.97;1.17;;;;;;;9.95;100.00;98031.28;6096236;29;20228;-76
2023/11/03 04:02:41;;;;;;;4.13;1.40;;;;;;;9.93;100.00;98030.66;6108688;28;20236;-76
2023/11/03 04:06:04;;;;;;;2.43;1.20;;;;;;;9.88;100.00;98014.28;6111630;28;20239;-76
2023/11/03 04:09:25;;;;;;;2.97;0.97;;;;;;;9.88;100.00;98016.97;6105385;28;20513;-76
2023/11/03 04:12:46;;;;;;;3.67;2.13;;;;;;;9.87;100.00;98016.13;6113548;28;20296;-76
2023/11/03 04:16:08;;;;;;;1.63;0.97;;;;;;;9.89;100.00;98016.75;6104821;29;20231;-76
2023/11/03 04:19:29;;;;;;;2.47;1.63;;;;;;;9.86;100.00;98010.97;6113198;28;20239;-75
2023/11/03 04:22:52;;;;;;;1.73;1.20;;;;;;;9.78;100.00;98014.69;6075809;29;20327;-76
2023/11/03 04:26:12;;;;;;;2.43;1.40;;;;;;;9.79;100.00;98020.88;6107255;28;20340;-77
2023/11/03 04:29:36;;;;;;;2.70;1.63;;;;;;;9.82;100.00;98004.34;6109721;29;20232;-76
2023/11/03 04:32:57;;;;;;;1.50;1.40;;;;;;;9.85;100.00;98020.06;6109374;28;20243;-76
2023/11/03 04:36:18;;;;;;;2.00;1.20;;;;;;;9.80;100.00;97993.78;6104068;29;20239;-75
2023/11/03 04:39:40;;;;;;;3.43;1.30;;;;;;;9.82;100.00;98004.34;6107057;29;22515;-77
2023/11/03 04:43:01;;;;;;;3.53;2.13;;;;;;;9.78;100.00;97995.84;6109231;29;20506;-75
2023/11/03 04:46:23;;;;;;;1.27;0.97;;;;;;;9.78;100.00;97995.00;6096106;29;20577;-75
2023/11/03 04:49:44;;;;;;;2.20;0.93;;;;;;;9.76;100.00;97995.22;6106827;28;20227;-75
2023/11/03 04:53:05;;;;;;;2.10;1.07;;;;;;;9.71;100.00;97992.28;6094556;29;20232;-75
2023/11/03 04:56:28;;;;;;;1.17;1.10;;;;;;;9.70;100.00;98001.38;6083747;29;20224;-75
2023/11/03 04:59:49;;;;;;;3.43;1.73;;;;;;;9.68;100.00;98015.03;6095861;28;20236;-75
2023/11/03 05:03:10;;;;;;;1.67;1.53;;;;;;;9.64;100.00;98027.22;6096567;28;20235;-76
2023/11/03 05:06:31;;;;;;;3.43;2.03;;;;;;;9.65;100.00;98030.75;6091275;28;20239;-75
2023/11/03 05:09:52;;;;;;;2.13;1.73;;;;;;;9.63;100.00;98025.59;6113493;28;20236;-75
2023/11/03 05:13:15;;;;;;;1.63;0.87;;;;;;;9.65;100.00;98023.53;6109845;28;20224;-76
2023/11/03 05:16:37;;;;;;;4.43;1.53;;;;;;;9.71;100.00;98039.88;6113018;28;20240;-75
2023/11/03 05:19:58;;;;;;;3.57;1.43;;;;;;;9.70;100.00;98039.03;6110647;28;20331;-76
2023/11/03 05:23:19;;;;;;;2.63;1.40;;;;;;;9.68;100.00;98054.53;6111387;28;20239;-76
2023/11/03 05:26:41;;;;;;;2.97;1.10;;;;;;;9.73;100.00;98045.88;6110700;28;20243;-76
2023/11/03 05:30:04;;;;;;;2.60;1.30;;;;;;;9.68;100.00;98043.78;6114720;28;20676;-76
2023/11/03 05:33:25;;;;;;;3.57;1.10;;;;;;;9.66;100.00;98041.31;6113637;28;20319;-76
2023/11/03 05:36:46;;;;;;;5.80;1.77;;;;;;;9.64;100.00;98043.38;6113924;28;20263;-76
2023/11/03 05:40:11;;;;;;;4.50;1.20;;;;;;;9.69;100.00;98037.38;6120603;28;20226;-77
2023/11/03 05:43:32;;;;;;;1.40;1.30;;;;;;;9.67;100.00;98034.06;6103610;28;20559;-75
2023/11/03 05:46:54;;;;;;;3.13;1.10;;;;;;;9.73;100.00;98033.28;6113445;28;20236;-76
2023/11/03 05:50:15;;;;;;;8.53;2.20;;;;;;;9.54;100.00;98039.38;6115469;28;20231;-76
2023/11/03 05:53:37;;;;;;;2.53;1.70;;;;;;;9.54;100.00;98034.00;6106933;28;20314;-76
2023/11/03 05:56:58;;;;;;;4.40;1.33;;;;;;;9.55;100.00;98041.84;6082211;28;20248;-77
2023/11/03 06:00:21;;;;;;;1.73;1.60;;;;;;;9.47;100.00;98042.03;6101602;28;20236;-75
2023/11/03 06:03:43;;;;;;;4.27;1.87;;;;;;;9.53;100.00;98045.81;6098401;28;20232;-75
2023/11/03 06:07:06;;;;;;;1.30;1.20;;;;;;;9.53;100.00;98035.84;6084709;28;20615;-76
2023/11/03 06:10:27;;;;;;;5.70;1.97;;;;;;;9.45;100.00;98037.91;6089641;28;20351;-75
2023/11/03 06:13:48;;;;;;;3.27;1.67;;;;;;;9.51;100.00;98040.59;6113756;28;20227;-75
2023/11/03 06:17:09;;;;;;;7.77;2.37;;;;;;;9.51;100.00;98051.34;6104749;28;20224;-74
2023/11/03 06:20:32;;;;;;;2.47;1.97;;;;;;;9.59;100.00;98061.97;6106076;28;20243;-74
2023/11/03 06:23:58;;;;;;;1.90;1.50;;;;;;;9.58;100.00;98067.53;6105729;28;20236;-75
2023/11/03 06:27:25;;;;;;;2.50;1.40;;;;;;;9.48;100.00;98070.59;6103248;28;20329;-73
2023/11/03 06:30:49;;;;;;;6.90;2.83;;;;;;;9.40;100.00;98076.13;6094913;28;20232;-75
2023/11/03 06:34:10;;;;;;;3.33;2.07;;;;;;;9.54;100.00;98071.66;6104516;28;20719;-73
2023/11/03 06:37:33;;;;;;;3.27;1.87;;;;;;;9.48;100.00;98083.19;6091908;28;20628;-73
2023/11/03 06:40:54;;;;;;;3.23;2.93;;;;;;;9.53;100.00;98081.56;6091507;28;20241;-73
2023/11/03 06:44:15;;;;;;;2.43;2.00;;;;;;;9.54;100.00;98101.22;6114592;28;20231;-74
2023/11/03 06:47:37;;;;;;;3.13;1.40;;;;;;;9.64;100.00;98099.00;6091887;28;20239;-74
2023/11/03 06:50:59;;;;;;;1.97;1.27;;;;;;;9.65;100.00;98100.69;6115493;28;20236;-72
2023/11/03 06:54:21;;;;;;;2.10;1.20;;;;;;;9.73;100.00;98100.53;6113354;28;20559;-73
2023/11/03 06:57:42;;;;;;;3.17;1.60;;;;;;;9.77;100.00;98109.84;6109392;28;20319;-74
2023/11/03 07:01:04;;;;;;;2.40;1.40;;;;;;;9.72;100.00;98114.19;6103162;28;20248;-73
2023/11/03 07:04:27;;;;;;;1.63;1.00;;;;;;;9.77;100.00;98119.78;6109482;28;20236;-73
2023/11/03 07:07:48;;;;;;;3.00;2.00;;;;;;;9.84;100.00;98124.19;6116962;28;20247;-74
2023/11/03 07:11:11;;;;;;;2.07;1.50;;;;;;;9.79;100.00;98129.31;6114881;28;20243;-74
2023/11/03 07:14:32;;;;;;;4.60;1.77;;;;;;;9.87;100.00;98125.63;6096665;29;20311;-73
2023/11/03 07:17:54;;;;;;;3.13;2.50;;;;;;;9.90;100.00;98133.31;6113236;29;20255;-74
2023/11/03 07:21:15;;;;;;;4.17;2.17;;;;;;;9.89;100.00;98137.84;6112900;28;20236;-75
2023/11/03 07:24:37;;;;;;;3.80;1.60;;;;;;;9.90;100.00;98142.22;6111022;28;20243;-72
2023/11/03 07:27:59;;;;;;;4.40;1.80;;;;;;;9.89;100.00;98153.19;6109457;28;20239;-74
2023/11/03 07:31:20;;;;;;;2.80;1.87;;;;;;;10.09;100.00;98154.09;6118943;28;20274;-76
2023/11/03 07:34:41;;;;;;;4.37;1.57;;;;;;;10.11;100.00;98162.84;6083373;29;20394;-74
2023/11/03 07:38:03;;;;;;;1.27;1.17;;;;;;;10.00;100.00;98152.59;6111286;28;21444;-76
2023/11/03 07:41:24;;;;;;;2.63;1.47;;;;;;;10.07;100.00;98153.47;6112609;28;20245;-73
2023/11/03 07:44:46;;;;;;;4.47;1.87;;;;;;;10.08;100.00;98152.44;6117189;28;20248;-75
2023/11/03 07:48:07;;;;;;;3.43;2.03;;;;;;;9.94;100.00;98148.03;6116525;28;20235;-77
2023/11/03 07:51:29;;;;;;;2.53;1.20;;;;;;;9.94;100.00;98148.84;6110076;28;20236;-78
2023/11/03 07:54:50;;;;;;;2.83;1.10;;;;;;;10.11;100.00;98144.00;6110031;28;20607;-74
2023/11/03 07:58:13;;;;;;;5.47;1.77;;;;;;;10.14;100.00;98135.50;6110541;29;20228;-77
2023/11/03 08:01:35;;;;;;;3.77;1.47;;;;;;;10.09;100.00;98138.78;6112341;28;20232;-73
2023/11/03 08:04:56;;;;;;;2.00;1.27;;;;;;;10.40;100.00;98135.63;6115654;28;20236;-76
2023/11/03 08:08:17;;;;;;;3.33;1.20;;;;;;;10.35;100.00;98135.38;6092045;29;20240;-77
2023/11/03 08:11:38;;;;;;;2.70;1.80;;;;;;;10.29;100.00;98145.13;6110656;28;20270;-74
2023/11/03 08:14:59;;;;;;;2.13;1.30;;;;;;;10.35;100.00;98146.16;6115997;28;20240;-74
2023/11/03 08:18:21;;;;;;;6.77;2.27;;;;;;;10.29;100.00;98142.41;6116945;28;20537;-76
2023/11/03 08:21:42;;;;;;;3.20;1.50;;;;;;;10.22;100.00;98146.94;6112480;28;20239;-73
2023/11/03 08:25:03;;;;;;;4.67;2.03;;;;;;;10.15;100.00;98156.88;6097322;29;20244;-74
2023/11/03 08:28:24;;;;;;;3.20;1.87;;;;;;;10.14;100.00;98148.97;6115632;29;20235;-72
2023/11/03 08:31:46;;;;;;;2.60;1.70;;;;;;;10.25;100.00;98167.25;6112784;29;20236;-72
2023/11/03 08:35:10;;;;;;;15.20;1.97;;;;;;;10.13;100.00;98172.38;6111562;28;20325;-77
2023/11/03 08:38:33;;;;;;;3.50;1.80;;;;;;;10.04;100.00;98170.84;6105316;28;20239;-79
2023/11/03 08:41:54;;;;;;;5.57;2.37;;;;;;;10.11;100.00;98179.84;6112874;28;20248;-73
2023/11/03 08:45:15;;;;;;;3.07;1.47;;;;;;;10.16;100.00;98185.44;6089476;29;20347;-73
2023/11/03 08:48:38;;;;;;;2.87;1.53;;;;;;;10.10;100.00;98182.66;6115852;29;20259;-75
2023/11/03 08:52:00;;;;;;;3.40;2.07;;;;;;;10.22;100.00;98194.59;6104385;28;20228;-75
2023/11/03 08:55:24;;;;;;;2.93;2.30;;;;;;;10.25;100.00;98189.63;6090861;28;20264;-75
2023/11/03 08:58:45;;;;;;;1.30;1.20;;;;;;;10.32;100.00;98192.34;6092711;29;22210;-76
2023/11/03 09:02:07;;;;;;;2.30;1.50;;;;;;;10.34;100.00;98195.69;6084276;28;20236;-76
2023/11/03 09:05:27;;;;;;;1.70;1.50;;;;;;;10.21;100.00;98206.38;6107183;28;20637;-75
2023/11/03 09:08:50;;;;;;;4.17;1.30;;;;;;;10.21;100.00;98214.44;6105176;28;20240;-75
2023/11/03 09:12:12;;;;;;;1.87;1.43;;;;;;;10.28;100.00;98218.03;6111718;28;20255;-74
2023/11/03 09:15:33;;;;;;;3.03;1.90;;;;;;;10.22;100.00;98218.81;6108780;28;20236;-75
2023/11/03 09:18:54;;;;;;;2.40;1.10;;;;;;;10.23;100.00;98232.06;6117549;28;20252;-74
2023/11/03 09:22:19;;;;;;;3.03;1.70;;;;;;;10.25;100.00;98218.41;6120158;28;20273;-74
2023/11/03 09:25:42;;;;;;;3.80;1.93;;;;;;;10.30;100.00;98232.13;6107766;28;20227;-74
2023/11/03 09:29:03;;;;;;;2.50;1.93;;;;;;;10.36;100.00;98231.31;6099201;28;20425;-75
2023/11/03 09:32:27;;;;;;;2.33;2.23;;;;;;;10.40;100.00;98232.56;6116175;28;20242;-75
2023/11/03 09:35:48;;;;;;;1.43;1.07;;;;;;;10.49;100.00;98220.59;6117196;28;20244;-75
2023/11/03 09:39:09;;;;;;;3.03;1.47;;;;;;;10.51;100.00;98226.63;6115179;29;20236;-75
2023/11/03 09:42:32;;;;;;;2.67;1.23;;;;;;;10.53;100.00;98224.56;6112753;29;20231;-74
2023/11/03 09:45:53;;;;;;;2.37;1.40;;;;;;;10.58;100.00;98238.25;6115691;28;20244;-74
2023/11/03 09:49:14;;;;;;;7.07;1.90;;;;;;;10.59;100.00;98247.16;6108757;29;20622;-74
2023/11/03 09:52:44;;;;;;;2.33;1.47;;;;;;;10.60;100.00;98260.41;6119335;28;20266;-74
2023/11/03 09:56:07;;;;;;;1.53;0.90;;;;;;;10.59;100.00;98248.00;6117609;28;20649;-75
2023/11/03 09:59:31;;;;;;;4.73;1.83;;;;;;;10.56;100.00;98263.72;6118506;28;20240;-74
2023/11/03 10:02:52;;;;;;;2.70;1.20;;;;;;;10.45;100.00;98271.34;6115048;28;20861;-75
2023/11/03 10:06:13;;;;;;;9.80;1.70;;;;;;;10.65;100.00;98263.34;6108542;28;20223;-74
2023/11/03 10:09:34;;;;;;;4.63;1.23;;;;;;;10.56;100.00;98269.09;6106557;28;20579;-75
2023/11/03 10:12:57;;;;;;;1.40;1.30;;;;;;;10.51;100.00;98261.63;6118134;28;20227;-75
2023/11/03 10:16:19;;;;;;;5.13;2.23;;;;;;;10.65;100.00;98263.34;6091760;28;20263;-75
2023/11/03 10:19:42;;;;;;;1.93;1.23;;;;;;;10.84;100.00;98262.59;6108508;28;20232;-73
2023/11/03 10:23:03;;;;;;;1.20;1.20;;;;;;;10.79;100.00;98272.31;6115244;29;20240;-75
2023/11/03 10:26:24;;;;;;;1.87;1.23;;;;;;;10.67;100.00;98246.97;6108124;29;20231;-73
2023/11/03 10:29:45;;;;;;;11.07;1.70;;;;;;;10.88;100.00;98257.63;6118209;28;20235;-73
2023/11/03 10:33:07;;;;;;;3.40;1.23;;;;;;;11.07;100.00;98251.47;6113753;28;20240;-79
2023/11/03 10:36:29;;;;;;;3.77;1.23;;;;;;;10.79;100.00;98269.63;6121722;28;20543;-79
2023/11/03 10:39:52;;;;;;;7.20;1.57;;;;;;;10.70;100.00;98268.97;6118358;28;20311;-76
2023/11/03 10:43:16;;;;;;;1.50;1.40;;;;;;;10.67;100.00;98261.28;6114158;28;20244;-79
2023/11/03 10:46:38;;;;;;;5.87;3.00;;;;;;;10.81;100.00;98273.78;6102135;28;20247;-80
2023/11/03 10:50:05;;;;;;;3.83;1.57;;;;;;;10.72;100.00;98288.44;6101509;28;20248;-77
2023/11/03 10:53:36;;;;;;;3.60;1.43;;;;;;;10.94;100.00;98273.84;6110626;28;20238;-77
2023/11/03 10:56:59;;;;;;;2.70;2.20;;;;;;;10.97;100.00;98273.41;6101935;29;20231;-79
2023/11/03 11:00:26;;;;;;;2.73;1.50;;;;;;;10.89;100.00;98270.91;6110430;29;20224;-75
2023/11/03 11:03:55;;;;;;;2.70;2.33;;;;;;;11.36;100.00;98269.16;6110798;28;20239;-82
2023/11/03 11:07:21;;;;;;;1.67;1.30;;;;;;;11.87;100.00;98281.88;6096346;29;22578;-78
2023/11/03 11:10:46;;;;;;;2.90;1.33;;;;;;;11.13;100.00;98316.22;6112290;29;20323;-82
2023/11/03 11:14:17;;;;;;;5.73;2.47;;;;;;;11.24;100.00;98307.50;6108127;28;20232;-78
2023/11/03 11:17:38;;;;;;;3.13;1.73;;;;;;;11.16;100.00;98307.69;6111497;29;20247;-75
2023/11/03 11:21:04;;;;;;;8.90;2.37;;;;;;;11.28;100.00;98306.06;6110092;28;20235;-76
2023/11/03 11:24:28;;;;;;;3.83;1.63;;;;;;;11.14;100.00;98315.16;6109622;29;20239;-75
2023/11/03 11:27:50;;;;;;;2.43;1.80;;;;;;;11.28;100.00;98324.13;6108216;29;20236;-72
2023/11/03 11:31:45;;;;;;;2.53;1.90;;;;;;;11.23;100.00;98330.13;6109495;28;20544;-76
2023/11/03 11:35:09;;;;;;;2.20;1.47;;;;;;;11.18;100.00;98340.69;6103985;28;20242;-76
2023/11/03 11:38:30;;;;;;;2.17;1.60;;;;;;;11.14;100.00;98349.38;6115072;28;20232;-76
2023/11/03 11:41:55;;;;;;;7.50;1.67;;;;;;;11.24;100.00;98344.47;6114056;28;20252;-77
2023/11/03 11:45:17;;;;;;;3.57;2.13;;;;;;;11.58;100.00;98338.09;6117024;28;20233;-80
2023/11/03 11:48:39;;;;;;;8.43;3.40;;;;;;;11.63;100.00;98327.53;6109852;28;20511;-78
2023/11/03 11:52:01;;;;;;;3.20;1.93;;;;;;;11.50;100.00;98333.72;6115068;28;20236;-77
2023/11/03 11:55:22;;;;;;;5.30;2.00;;;;;;;12.14;100.00;98330.50;6101803;29;20240;-78
2023/11/03 11:58:45;;;;;;;3.23;1.63;;;;;;;12.01;100.00;98334.84;6092742;28;20631;-84
2023/11/03 12:02:06;;;;;;;6.87;2.10;;;;;;;12.08;100.00;98336.72;6108560;28;20256;-76
2023/11/03 12:05:29;;;;;;;2.13;1.20;;;;;;;11.82;100.00;98327.59;6119839;28;20682;-73
2023/11/03 12:08:51;;;;;;;1.63;1.43;;;;;;;11.83;100.00;98304.09;6110285;28;20641;-78
2023/11/03 12:12:12;;;;;;;4.30;2.73;;;;;;;11.72;100.00;98326.31;6116076;29;20232;-80
2023/11/03 12:15:34;;;;;;;3.10;1.50;;;;;;;11.72;100.00;98324.44;6115589;28;20232;-76
2023/11/03 12:18:55;;;;;;;2.80;1.33;;;;;;;11.57;100.00;98322.94;6090981;28;20248;-74
2023/11/03 12:22:22;;;;;;;3.20;2.07;;;;;;;11.52;100.00;98330.81;6113736;28;21041;-73
2023/11/03 12:25:42;;;;;;;1.73;1.17;;;;;;;11.59;100.00;98337.06;6112297;28;20263;-77
2023/11/03 12:29:26;;;;;;;2.73;2.43;;;;;;;11.55;100.00;98333.94;6116871;28;20251;-84
2023/11/03 12:32:49;;;;;;;2.13;1.70;;;;;;;11.57;100.00;98331.03;6109075;29;20240;-74
2023/11/03 12:36:11;;;;;;;3.20;1.70;;;;;;;11.60;100.00;98331.44;6115826;29;20274;-75
2023/11/03 12:39:47;;;;;;;3.97;1.60;;;;;;;11.51;100.00;98337.25;6098088;28;20602;-74
2023/11/03 12:43:12;;;;;;;2.83;1.83;;;;;;;11.55;100.00;98331.25;6116521;28;20239;-78
2023/11/03 12:46:35;;;;;;;3.10;1.97;;;;;;;11.53;100.00;98340.59;6111085;28;20306;-82
2023/11/03 12:50:19;;;;;;;2.63;2.13;;;;;;;11.58;100.00;98352.41;6111967;28;20240;-75
2023/11/03 12:53:49;;;;;;;6.10;2.40;;;;;;;11.44;100.00;98377.69;6113022;28;20516;-72
2023/11/03 12:57:10;;;;;;;2.43;2.23;;;;;;;11.41;100.00;98378.09;6090915;28;20244;-79
2023/11/03 13:00:31;;;;;;;3.87;2.83;;;;;;;11.39;100.00;98380.16;6084128;29;20237;-78
2023/11/03 13:03:53;;;;;;;3.80;2.07;;;;;;;11.38;100.00;98391.16;6117046;28;20235;-75
2023/11/03 13:07:15;;;;;;;2.53;2.10;;;;;;;11.33;100.00;98405.25;6110564;28;20244;-78
2023/11/03 13:10:38;;;;;;;4.83;2.03;;;;;;;11.28;100.00;98411.25;6113295;28;20600;-78
2023/11/03 13:13:59;;;;;;;8.33;2.40;;;;;;;11.31;100.00;98412.72;6114992;28;20599;-78
2023/11/03 13:17:20;;;;;;;2.57;1.50;;;;;;;11.27;100.00;98408.75;6111343;28;20235;-85
2023/11/03 13:20:41;;;;;;;3.53;2.73;;;;;;;11.28;100.00;98408.56;6118344;28;20252;-79
2023/11/03 13:24:05;;;;;;;7.60;3.27;;;;;;;11.36;100.00;98414.81;6115104;28;20224;-77
2023/11/03 13:27:26;;;;;;;5.57;3.00;;;;;;;11.34;100.00;98422.28;6086579;28;20237;-75
2023/11/03 13:30:48;;;;;;;3.43;2.20;;;;;;;11.48;100.00;98424.81;6101149;28;20239;-77
2023/11/03 13:34:12;;;;;;;6.73;2.33;;;;;;;11.58;100.00;98422.56;6113550;28;20314;-76
2023/11/03 13:37:33;;;;;;;5.33;2.57;;;;;;;12.01;100.00;98415.03;6113748;28;20232;-79
2023/11/03 13:44:49;;;;;;;8.97;2.80;;;;;;;11.96;100.00;98423.75;6097937;28;20235;-86
2023/11/03 13:48:34;;;;;;;3.80;2.43;;;;;;;11.91;100.00;98428.91;6057267;28;20248;-86
2023/11/03 13:51:58;;;;;;;6.40;2.00;;;;;;;11.94;100.00;98436.63;6106590;28;20240;-86
2023/11/03 13:55:20;;;;;;;4.37;2.37;;;;;;;11.79;100.00;98425.16;6111231;28;20228;-78
2023/11/03 13:58:42;;;;;;;3.77;1.80;;;;;;;11.91;100.00;98425.41;6114714;28;20732;-78
2023/11/03 14:02:03;;;;;;;3.80;2.60;;;;;;;11.70;100.00;98417.47;6113729;28;20582;-81
2023/11/03 14:05:25;;;;;;;3.47;2.00;;;;;;;11.77;100.00;98426.38;6115639;29;20275;-79
2023/11/03 14:08:46;;;;;;;3.90;2.80;;;;;;;12.27;100.00;98427.72;6105535;28;20232;-82
2023/11/03 14:12:09;;;;;;;2.60;2.20;;;;;;;12.74;100.00;98420.25;6118269;28;20673;-80
2023/11/03 14:15:31;;;;;;;4.33;2.33;;;;;;;12.19;100.00;98422.53;6110108;28;20234;-77
2023/11/03 14:18:52;;;;;;;4.80;2.23;;;;;;;11.93;100.00;98420.63;6120123;28;20227;-82
2023/11/03 14:22:13;;;;;;;4.30;2.80;;;;;;;12.09;100.00;98412.13;6098715;28;20603;-78
2023/11/03 14:25:34;;;;;;;2.63;1.93;;;;;;;12.06;100.00;98409.03;6078194;29;20576;-76
2023/11/03 14:28:55;;;;;;;6.03;2.60;;;;;;;11.89;100.00;98411.28;6075273;28;20244;-77
2023/11/03 14:32:18;;;;;;;4.87;2.33;;;;;;;11.76;100.00;98401.28;6113230;28;20244;-78
2023/11/03 14:35:39;;;;;;;6.57;2.00;;;;;;;11.85;100.00;98401.91;6115792;28;20334;-76
2023/11/03 14:39:00;;;;;;;5.10;2.77;;;;;;;11.73;100.00;98403.53;6095871;28;20263;-77
2023/11/03 14:42:22;;;;;;;4.40;1.47;;;;;;;11.68;100.00;98401.44;6120061;28;20260;-78
2023/11/03 14:45:43;;;;;;;12.10;3.30;;;;;;;11.61;100.00;98407.84;6091716;28;20769;-79
2023/11/03 14:49:06;;;;;;;6.30;2.37;;;;;;;11.56;100.00;98413.00;6086460;29;20232;-79
2023/11/03 14:52:27;;;;;;;7.47;3.20;;;;;;;11.51;100.00;98412.81;6113643;28;20239;-79
2023/11/03 14:55:48;;;;;;;4.50;3.20;;;;;;;11.39;100.00;98411.72;6098752;29;20351;-79
2023/11/03 14:59:09;;;;;;;2.87;1.90;;;;;;;11.41;100.00;98428.53;6114679;28;20231;-76
2023/11/03 15:02:32;;;;;;;3.37;2.30;;;;;;;11.53;100.00;98418.81;6106673;29;20244;-75
2023/11/03 15:05:54;;;;;;;3.47;1.93;;;;;;;11.30;100.00;98421.00;6081076;29;20573;-76
2023/11/03 15:09:19;;;;;;;4.90;2.60;;;;;;;11.24;100.00;98419.97;6116338;29;20239;-77
2023/11/03 15:12:43;;;;;;;6.23;3.07;;;;;;;11.21;100.00;98434.69;6112713;28;20674;-77
2023/11/03 15:16:04;;;;;;;3.33;2.27;;;;;;;11.16;100.00;98433.59;6100538;29;20232;-78
2023/11/03 15:19:30;;;;;;;3.57;2.30;;;;;;;11.10;100.00;98443.31;6113588;28;20319;-77
2023/11/03 15:22:54;;;;;;;5.10;2.47;;;;;;;11.09;100.00;98448.91;6102760;29;20255;-79
2023/11/03 15:26:15;;;;;;;4.53;2.07;;;;;;;11.07;100.00;98453.69;6115068;29;20235;-79
2023/11/03 15:29:36;;;;;;;6.23;2.20;;;;;;;11.04;100.00;98456.75;6110004;29;20323;-79
2023/11/03 15:32:57;;;;;;;7.33;2.57;;;;;;;10.98;100.00;98473.72;6116458;28;20243;-79
2023/11/03 15:36:19;;;;;;;4.37;3.13;;;;;;;10.94;100.00;98472.47;6121456;29;20231;-79
2023/11/03 15:39:41;;;;;;;6.33;3.03;;;;;;;10.90;100.00;98481.97;6110574;29;20247;-79
2023/11/03 15:43:01;;;;;;;4.37;2.77;;;;;;;10.82;100.00;98491.06;6102399;29;20243;-80
2023/11/03 15:46:23;;;;;;;3.27;2.53;;;;;;;10.78;100.00;98494.34;6097204;29;20224;-79